x

Tanner Bank - 121nm West Of San Diego, Ca (46047) Wave Buoy

9:50 - Sat 28th May 2016 All times are PDT. -7 hours from GMT.

  • Sig Wave height 5.6ft
  • Swell Direction
  • Peak Period 11s
  • Average Period 7s
  • Wind
    4mph, 9mph gusts
  • Sea Temp 60°f
  • Ar Temp 58°f
  • Sea Pressure 1012.5mb
  • Tanner Bank - 121nm West Of San Diego, Ca
  • Tanner Bank - 121nm West Of San Diego, Ca

More Historic Weather Station data

Upgrade to MSW Pro to gain access to the past 30 days of data for over 8000 Wavebouys and Weather Stations around the globe.

Join Pro

Comparision Forecast

View Surf forecast
   
Sáb 05/28 9:50 5.5ft 11s 7s 4 9 mph 1012.5mb 60f 58f
8:50 6ft 11s 8s 7 13 mph 1012.3mb 60f 58f
7:50 5.5ft 10s 7s 7 9 mph 1011.9mb 60f 58f
6:50 6ft 11s 7s 9 11 mph 1011.6mb 60f 57f
5:50 6ft 11s 7s 9 13 mph 1011.2mb 60f 57f
4:50 6ft 10s 7s 7 11 mph 1010.9mb 60f 57f
3:50 7ft 11s 7s 7 11 mph 1010.8mb 60f 57f
2:50 7ft 10s 7s 9 11 mph 1011mb 60f 57f
1:50 7ft 10s 7s 9 13 mph 1011.6mb 60f 57f
12:50 6.5ft 9s 7s 11 13 mph 1012mb 60f 57f
Sex 05/27 11:50 7ft 10s 6s 11 16 mph 1012.5mb 60f 57f
10:50 6.5ft 10s 6s 11 13 mph 1012.7mb 60f 58f
9:50 7ft 9s 6s 18 22 mph 1012.2mb 60f 58f
8:50 7ft 10s 6s 20 22 mph 1012mb 60f 58f
7:50 7ft 10s 6s 22 27 mph 1011.8mb 61f 58f
6:50 7ft 10s 6s 22 27 mph 1011.6mb 61f 58f
5:50 7ft 10s 6s 20 25 mph 1012.1mb 61f 58f
4:50 7ft 9s 6s 18 22 mph 1012.3mb 61f 58f
3:50 7.5ft 9s 7s 18 20 mph 1012.8mb 61f 58f
2:50 7ft 9s 7s 18 20 mph 1013.2mb 61f 58f
1:50 7ft 10s 6s 18 20 mph 1013.4mb 61f 58f
12:50 7ft 9s 6s 18 20 mph 1013.7mb 61f 58f
11:50 7ft 9s 6s 18 20 mph 1014.1mb 61f 58f
10:50 6.5ft 9s 6s 18 20 mph 1014.3mb 61f 57f
9:50 6.5ft 8s 6s 16 18 mph 1014.8mb 61f 57f
8:50 7ft 8s 6s 18 22 mph 1014.8mb 61f 57f
7:50 7ft 8s 6s 18 25 mph 1014.5mb 61f 57f
6:50 7ft 8s 6s 18 22 mph 1014.5mb 61f 58f
5:50 7ft 7s 6s 18 22 mph 1014.4mb 61f 58f
4:50 8ft 8s 6s 18 25 mph 1014.3mb 61f 57f
3:50 8ft 8s 6s 18 22 mph 1014.1mb 61f 57f
2:50 8ft 8s 6s 20 25 mph 1014.9mb 61f 58f
1:50 7.5ft 8s 6s 22 27 mph 1015.6mb 61f 58f
12:50 7ft 7s 6s 22 29 mph 1016.1mb 61f 58f
Qui 05/26 11:50 6.5ft 8s 6s 20 25 mph 1016.5mb 61f 58f
10:50 7ft 8s 6s 20 27 mph 1016.9mb 61f 58f
9:50 6.5ft 8s 6s 20 27 mph 1016.7mb 61f 58f
8:50 7ft 7s 6s 20 27 mph 1016.4mb 61f 58f
7:50 7ft 8s 6s 20 27 mph 1016.4mb 61f 58f
6:50 6.5ft 8s 5s 20 27 mph 1016.5mb 61f 58f
5:50 7ft 8s 6s 25 29 mph 1016.7mb 61f 58f
4:50 7ft 8s 6s 22 27 mph 1017.3mb 61f 58f
3:50 8ft 8s 6s 22 27 mph 1017.6mb 61f 59f
2:50 8ft 8s 6s 25 29 mph 1017.9mb 61f 59f
1:50 8ft 8s 6s 22 29 mph 1018.6mb 61f 59f
12:50 8ft 8s 6s 25 29 mph 1019mb 61f 59f
11:50 7.5ft 8s 6s 25 29 mph 1019.2mb 61f 58f
10:50 7.5ft 8s 6s 22 27 mph 1019.1mb 61f 58f
9:50 7.5ft 7s 6s 22 27 mph 1019.6mb 61f 58f
8:50 7ft 7s 5s 25 29 mph 1019.1mb 61f 58f
7:50 7ft 8s 6s 25 29 mph 1019.4mb 61f 58f
6:50 7ft 8s 6s 22 27 mph 1019mb 61f 58f
5:50 7ft 8s 6s 22 27 mph 1018.4mb 61f 59f
4:50 7ft 7s 6s 22 29 mph 1018mb 61f 58f
3:50 7.5ft 7s 6s 22 29 mph 1018.1mb 62f 59f
2:50 7.5ft 7s 6s 22 29 mph 1018.4mb 62f 58f
1:50 7ft 7s 6s 20 27 mph 1019.1mb 62f 58f
12:50 6.5ft 7s 5s 22 27 mph 1019.5mb 62f 59f
Qua 05/25 11:50 7ft 7s 5s 22 27 mph 1019.8mb 62f 59f
10:50 6ft 6s 5s 22 29 mph 1020.1mb 62f 59f
9:50 6ft 6s 5s 20 25 mph 1020.3mb 62f 59f
8:50 5ft 5s 5s 22 27 mph 1019.9mb 62f 59f
7:50 5ft 5s 5s 20 25 mph 1019.9mb 62f 59f
6:50 5ft 5s 5s 20 22 mph 1019.8mb 62f 59f
5:50 5ft 5s 5s 20 22 mph 1019.8mb 62f 60f
4:50 4.5ft 5s 5s 20 22 mph 1019.9mb 62f 60f
3:50 4ft 10s 5s 18 20 mph 1020.3mb 62f 60f
2:50 3.5ft 10s 5s 18 20 mph 1020.6mb 62f 60f
1:50 3.5ft 10s 5s 16 18 mph 1020.9mb 62f 59f
12:50 3ft 10s 5s 16 18 mph 1020.8mb 62f 59f
11:50 3ft 11s 5s 16 20 mph 1020.8mb 62f 59f
10:50 2.5ft 15s 5s 13 16 mph 1020.5mb 62f 60f
9:50 2.5ft 16s 5s 11 13 mph 1020mb 61f 60f
8:50 2.5ft 16s 5s 11
mph
1019.6mb 61f 59f
7:50 2.5ft 14s 5s 11 13 mph 1019.2mb 61f 59f
6:50 2.5ft 15s 5s 13 16 mph 1018.6mb 61f 59f
5:50 2.5ft 15s 5s 13 16 mph 1018.1mb 61f 60f
4:50 2.5ft 14s 5s 13 16 mph 1017.8mb 61f 60f
3:50 2.5ft 8s 5s 13 16 mph 1017.5mb 62f 60f
2:50 2.5ft 16s 5s 11 13 mph 1017.6mb 62f 61f
1:50 2.5ft 15s 5s 13 16 mph 1017.8mb 62f 61f
12:50 2.5ft 15s 5s 11 13 mph 1018mb 62f 61f
Ter 05/24 11:50 2.5ft 15s 5s 9 11 mph 1018mb 62f 61f
10:50 2.5ft 15s 5s 11
mph
1018.1mb 62f 60f
9:50 2.5ft 16s 5s 11 13 mph 1018mb 62f 60f
8:50 2.5ft 14s 5s 9 11 mph 1017.6mb 62f 60f
7:50 2.5ft 6s 5s 9
mph
1017.5mb 62f 59f
6:50 2.5ft 6s 5s 9 11 mph 1017.5mb 62f 61f